Time;durP1;ratioP1;P1;durP2;ratioP2;P2;SDS_P1;SDS_P2;PMS_P1;PMS_P2;Temp;Humidity;BMP_temperature;BMP_pressure;BME280_temperature;BME280_humidity;BME280_pressure;Samples;Min_cycle;Max_cycle;Signal;HPM_P1;HPM_P2
2023/09/25 00:06:47;;;;;;;5.47;1.50;;;;;;;15.17;64.76;101334.50;4758953;29;20245;-73
2023/09/25 00:10:15;;;;;;;3.30;1.80;;;;;;;15.14;64.75;101334.81;4774185;29;20267;-74
2023/09/25 00:25:23;;;;;;;3.63;1.67;;;;;;;15.04;64.61;101334.06;4780671;29;20311;-73
2023/09/25 01:29:36;;;;;;;3.87;2.07;;;;;;;14.14;66.17;101320.91;4723478;30;20275;-73
2023/09/25 01:33:13;;;;;;;2.77;1.70;;;;;;;14.10;65.80;101319.50;4723871;30;20253;-73
2023/09/25 01:51:58;;;;;;;4.47;1.80;;;;;;;13.98;64.95;101318.06;4793143;29;20223;-73
2023/09/25 02:25:33;;;;;;;3.83;1.90;;;;;;;13.47;67.27;101298.09;4724205;30;20235;-73
2023/09/25 02:54:36;;;;;;;3.93;1.30;;;;;;;13.56;65.69;101276.72;4758887;30;20231;-74
2023/09/25 03:26:27;;;;;;;3.63;1.70;;;;;;;13.34;65.66;101276.28;4754686;29;20232;-73
2023/09/25 03:37:28;;;;;;;2.77;1.53;;;;;;;13.26;66.38;101278.84;4903618;29;20208;-73
2023/09/25 03:44:58;;;;;;;4.10;2.00;;;;;;;13.26;65.79;101276.19;4768615;29;20295;-73
2023/09/25 03:55:13;;;;;;;4.20;1.83;;;;;;;13.10;65.87;101272.28;4646492;30;20229;-73
2023/09/25 04:02:52;;;;;;;5.63;2.30;;;;;;;13.08;65.86;101282.22;4867036;29;20419;-73
2023/09/25 04:06:13;;;;;;;4.43;1.60;;;;;;;13.10;65.65;101282.09;4797368;29;20788;-74
2023/09/25 04:28:51;;;;;;;4.63;2.27;;;;;;;12.88;66.62;101296.56;4710409;30;20324;-73
2023/09/25 04:43:19;;;;;;;5.30;2.70;;;;;;;12.65;68.42;101290.72;4754796;30;20955;-74
2023/09/25 05:30:38;;;;;;;4.97;2.37;;;;;;;12.74;67.79;101334.28;4745665;29;20314;-74
2023/09/25 05:33:12;;;;;;;4.90;2.83;;;;;;;12.73;68.01;101328.13;4852018;29;20275;-71
2023/09/25 05:35:49;;;;;;;5.63;2.80;;;;;;;12.76;67.80;101335.78;4918800;29;20212;-70
2023/09/25 05:38:23;;;;;;;5.87;2.50;;;;;;;12.80;68.03;101333.69;4943243;29;20287;-71
2023/09/25 05:41:08;;;;;;;6.77;2.73;;;;;;;12.81;68.11;101328.25;4939974;29;20223;-71
2023/09/25 05:43:53;;;;;;;5.13;2.93;;;;;;;12.83;68.04;101336.09;4942379;29;20600;-70
2023/09/25 05:46:35;;;;;;;6.87;3.10;;;;;;;12.70;68.89;101341.69;4942063;28;20224;-72
2023/09/25 05:49:07;;;;;;;6.40;2.50;;;;;;;12.66;68.97;101340.31;4942473;29;20666;-71
2023/09/25 05:51:44;;;;;;;6.10;3.87;;;;;;;12.68;69.72;101330.34;4941745;28;20305;-71
2023/09/25 05:54:13;;;;;;;6.10;2.87;;;;;;;12.77;69.59;101336.63;4943338;28;20212;-71
2023/09/25 05:56:41;;;;;;;7.13;2.60;;;;;;;12.84;69.41;101337.75;4943147;29;20279;-69
2023/09/25 05:59:10;;;;;;;9.47;3.60;;;;;;;12.86;69.46;101338.44;4944696;28;20332;-71
2023/09/25 06:01:43;;;;;;;5.17;2.57;;;;;;;12.94;69.19;101333.25;4942243;28;20225;-70
2023/09/25 06:04:15;;;;;;;5.03;2.27;;;;;;;12.93;69.86;101336.91;4941382;29;20205;-71
2023/09/25 06:06:43;;;;;;;4.53;2.63;;;;;;;12.94;70.00;101338.56;4936883;23;20236;-70
2023/09/25 06:09:15;;;;;;;7.63;3.23;;;;;;;13.00;70.14;101331.88;4916490;29;20207;-70
2023/09/25 06:11:43;;;;;;;8.57;3.60;;;;;;;13.03;69.73;101337.72;4916705;29;20203;-72
2023/09/25 06:14:11;;;;;;;5.07;3.10;;;;;;;13.09;69.69;101326.53;4934701;29;20674;-71
2023/09/25 06:16:40;;;;;;;8.83;2.87;;;;;;;13.12;69.45;101326.22;4934599;29;20258;-71
2023/09/25 06:19:09;;;;;;;6.00;3.37;;;;;;;13.15;69.58;101317.97;4935263;29;20222;-69
2023/09/25 06:21:37;;;;;;;4.93;2.77;;;;;;;13.19;69.99;101324.69;4935186;29;20229;-72
2023/09/25 06:24:09;;;;;;;10.07;4.40;;;;;;;13.23;69.84;101327.91;4934398;29;20644;-69
2023/09/25 06:26:39;;;;;;;9.20;4.17;;;;;;;13.29;70.02;101331.81;4935264;29;20213;-68
2023/09/25 06:29:08;;;;;;;7.77;3.27;;;;;;;13.35;69.11;101345.41;4935211;29;20209;-69
2023/09/25 06:31:36;;;;;;;6.43;2.90;;;;;;;13.41;69.79;101346.66;4935194;29;20208;-72
2023/09/25 06:34:22;;;;;;;7.97;2.63;;;;;;;13.41;69.53;101342.16;4934508;29;20206;-70
2023/09/25 06:36:50;;;;;;;7.33;3.67;;;;;;;13.44;69.80;101336.56;4934152;29;20208;-71
2023/09/25 06:39:17;;;;;;;12.93;6.17;;;;;;;13.51;69.31;101347.44;4934272;29;20609;-71
2023/09/25 06:41:45;;;;;;;7.70;3.50;;;;;;;13.55;69.30;101349.66;4937426;29;20246;-70
2023/09/25 06:44:13;;;;;;;6.60;2.70;;;;;;;13.62;69.03;101354.44;4938056;28;21389;-67
2023/09/25 06:46:40;;;;;;;4.53;2.50;;;;;;;13.67;68.49;101353.00;4944702;28;20323;-66
2023/09/25 06:49:08;;;;;;;4.90;2.70;;;;;;;13.70;69.02;101342.06;4939727;29;20203;-70
2023/09/25 06:51:37;;;;;;;5.23;2.80;;;;;;;13.78;68.81;101338.66;4940843;29;20205;-70
2023/09/25 06:54:05;;;;;;;6.77;2.60;;;;;;;13.87;68.49;101348.41;4941613;29;20207;-71
2023/09/25 06:56:33;;;;;;;4.80;2.73;;;;;;;13.98;67.60;101355.38;4938669;29;20219;-70
2023/09/25 06:59:02;;;;;;;9.47;3.03;;;;;;;14.04;67.53;101346.78;4938805;29;20212;-71
2023/09/25 07:01:30;;;;;;;6.90;2.77;;;;;;;14.10;67.89;101338.19;4938655;29;20398;-70
2023/09/25 07:03:58;;;;;;;5.70;3.27;;;;;;;14.16;68.00;101340.25;4941886;29;20214;-70
2023/09/25 07:06:26;;;;;;;8.40;3.40;;;;;;;14.23;67.34;101344.84;4940098;29;20608;-66
2023/09/25 07:08:57;;;;;;;7.57;2.90;;;;;;;14.28;67.98;101339.03;4942796;28;20230;-69
2023/09/25 07:11:24;;;;;;;4.17;2.33;;;;;;;14.27;68.18;101338.19;4941741;28;20236;-71
2023/09/25 07:13:53;;;;;;;5.07;2.33;;;;;;;14.26;68.34;101333.00;4938966;29;20234;-67
2023/09/25 07:16:20;;;;;;;8.67;3.60;;;;;;;14.32;67.45;101338.59;4940797;29;20211;-70
2023/09/25 07:18:49;;;;;;;4.83;2.50;;;;;;;14.38;67.17;101338.97;4940949;29;20224;-70
2023/09/25 07:21:17;;;;;;;3.97;2.77;;;;;;;14.39;67.70;101341.53;4937579;29;20701;-69
2023/09/25 07:23:45;;;;;;;4.63;2.73;;;;;;;14.41;67.73;101341.38;4941472;29;21067;-72
2023/09/25 07:26:15;;;;;;;6.13;3.00;;;;;;;14.46;67.15;101344.41;4939770;29;20302;-70
2023/09/25 07:28:43;;;;;;;6.07;3.00;;;;;;;14.49;67.22;101344.97;4941259;29;20211;-69
2023/09/25 07:31:11;;;;;;;6.63;2.80;;;;;;;14.56;67.21;101348.69;4942484;29;20304;-71
2023/09/25 07:33:39;;;;;;;6.53;3.10;;;;;;;14.58;67.10;101349.41;4942954;29;20687;-71
2023/09/25 07:36:07;;;;;;;8.03;3.10;;;;;;;14.59;67.92;101351.06;4942395;29;20278;-71
2023/09/25 07:38:34;;;;;;;8.77;3.57;;;;;;;14.64;67.79;101347.94;4940484;28;20220;-69
2023/09/25 07:41:02;;;;;;;8.83;4.17;;;;;;;14.69;67.31;101351.81;4939304;28;20231;-69
2023/09/25 07:43:32;;;;;;;7.50;3.93;;;;;;;14.76;68.00;101361.91;4940178;28;20293;-71
2023/09/25 07:46:18;;;;;;;6.63;3.97;;;;;;;14.79;67.83;101357.06;4945463;29;20689;-68
2023/09/25 07:48:47;;;;;;;10.23;3.83;;;;;;;14.89;67.29;101356.97;4945008;29;20266;-71
2023/09/25 07:51:15;;;;;;;8.03;3.57;;;;;;;14.94;67.28;101357.38;4942085;29;20223;-69
2023/09/25 07:53:44;;;;;;;9.10;3.57;;;;;;;14.98;67.47;101362.25;4941693;29;20646;-70
2023/09/25 07:56:12;;;;;;;7.13;3.37;;;;;;;15.05;66.95;101357.09;4941794;29;20239;-72
2023/09/25 07:58:41;;;;;;;5.83;3.40;;;;;;;15.13;66.55;101367.84;4943329;29;20226;-70
2023/09/25 08:01:14;;;;;;;8.60;3.50;;;;;;;15.23;66.98;101360.59;4944181;29;20343;-70
2023/09/25 08:03:42;;;;;;;3.77;2.73;;;;;;;15.31;66.13;101363.31;4943945;29;20536;-69
2023/09/25 08:06:11;;;;;;;6.47;4.00;;;;;;;15.39;66.31;101360.69;4944931;29;20218;-71
2023/09/25 08:08:39;;;;;;;5.23;3.20;;;;;;;15.46;65.88;101349.38;4924416;29;20560;-70
2023/09/25 08:11:07;;;;;;;8.60;3.53;;;;;;;15.54;64.93;101358.31;4945360;28;21013;-70
2023/09/25 08:13:35;;;;;;;7.87;3.87;;;;;;;15.66;65.67;101362.38;4944204;29;20236;-69
2023/09/25 08:16:07;;;;;;;7.07;3.40;;;;;;;15.77;64.42;101358.59;4947126;28;20224;-68
2023/09/25 08:18:35;;;;;;;7.80;3.13;;;;;;;15.88;62.89;101360.13;4944840;29;20208;-69
2023/09/25 08:21:04;;;;;;;6.43;3.37;;;;;;;15.95;61.58;101362.00;4945639;29;20239;-69
2023/09/25 08:23:32;;;;;;;16.60;4.97;;;;;;;16.03;63.77;101367.38;4944601;29;20217;-69
2023/09/25 08:26:00;;;;;;;7.07;3.80;;;;;;;16.15;63.50;101366.09;4946040;29;20314;-69
2023/09/25 08:28:29;;;;;;;5.30;3.30;;;;;;;16.44;61.90;101364.84;4945934;28;20276;-70
2023/09/25 08:30:56;;;;;;;8.07;3.10;;;;;;;16.55;61.66;101361.81;4945178;29;20347;-70
2023/09/25 08:33:26;;;;;;;4.33;2.60;;;;;;;16.66;59.88;101366.91;4942516;29;20219;-70
2023/09/25 08:35:53;;;;;;;8.70;3.43;;;;;;;16.76;58.73;101366.72;4944185;29;20204;-68
2023/09/25 08:38:21;;;;;;;7.57;3.53;;;;;;;17.16;57.60;101366.72;4944691;29;20217;-68
2023/09/25 08:40:49;;;;;;;8.53;3.37;;;;;;;17.51;57.75;101370.00;4944837;29;20244;-67
2023/09/25 08:43:18;;;;;;;7.13;2.87;;;;;;;17.72;57.11;101369.47;4942662;29;20231;-68
2023/09/25 08:45:50;;;;;;;4.00;2.50;;;;;;;17.93;55.55;101361.69;4940058;28;20199;-69
2023/09/25 08:48:18;;;;;;;4.37;2.03;;;;;;;18.71;54.21;101358.91;4941727;28;20749;-71
2023/09/25 08:50:48;;;;;;;5.13;2.23;;;;;;;24.80;40.70;101342.09;4942734;28;20214;-68
2023/09/25 08:53:17;;;;;;;5.50;2.00;;;;;;;31.57;30.26;101336.63;4941285;28;20238;-67
2023/09/25 08:55:44;;;;;;;3.75;1.92;;;;;;;36.97;23.52;101336.69;4943274;28;20218;-67
2023/09/25 08:58:12;;;;;;;7.50;2.63;;;;;;;40.57;20.40;101331.16;4943758;29;20362;-71
2023/09/25 09:00:41;;;;;;;5.05;2.85;;;;;;;42.27;18.09;101326.31;4943867;29;20207;-69
2023/09/25 09:03:08;;;;;;;3.80;2.05;;;;;;;42.78;17.89;101325.03;4942527;29;20682;-75
2023/09/25 09:05:37;;;;;;;4.00;2.05;;;;;;;43.20;17.32;101313.69;4945253;28;20661;-71
2023/09/25 09:08:07;;;;;;;5.03;2.10;;;;;;;42.52;17.43;101322.47;4947386;29;20199;-72
2023/09/25 09:10:38;;;;;;;6.20;2.53;;;;;;;41.15;18.49;101321.41;4945778;29;20206;-71
2023/09/25 09:13:10;;;;;;;4.78;2.42;;;;;;;38.23;20.25;101325.81;4944893;29;20281;-70
2023/09/25 09:15:39;;;;;;;4.07;1.90;;;;;;;34.94;23.36;101329.16;4943734;29;20207;-72
2023/09/25 09:18:20;;;;;;;5.65;2.03;;;;;;;31.14;27.47;101323.22;4943448;29;20907;-70
2023/09/25 09:20:53;;;;;;;5.97;1.80;;;;;;;28.19;31.31;101326.66;4941786;28;20603;-69
2023/09/25 09:23:38;;;;;;;3.42;1.83;;;;;;;26.21;34.21;101324.69;4947041;29;20290;-67
2023/09/25 09:26:07;;;;;;;4.95;2.10;;;;;;;24.90;36.63;101309.84;4945658;29;20212;-71
2023/09/25 09:28:35;;;;;;;3.03;1.80;;;;;;;23.83;38.48;101322.41;4943124;29;20215;-73
2023/09/25 09:31:06;;;;;;;3.00;1.70;;;;;;;23.02;39.60;101319.22;4946312;29;20215;-73
2023/09/25 09:33:36;;;;;;;5.82;2.05;;;;;;;22.64;40.59;101315.44;4943050;28;20298;-71
2023/09/25 09:36:04;;;;;;;8.50;1.95;;;;;;;22.78;40.88;101317.16;4945991;29;20223;-73
2023/09/25 09:38:36;;;;;;;8.88;1.77;;;;;;;22.28;41.61;101313.94;4941520;29;20294;-68
2023/09/25 09:41:06;;;;;;;4.20;2.08;;;;;;;21.68;42.63;101323.66;4942863;29;20239;-69
2023/09/25 09:43:34;;;;;;;4.72;2.10;;;;;;;21.24;43.83;101318.63;4943206;29;20235;-69
2023/09/25 09:46:02;;;;;;;5.57;1.95;;;;;;;21.00;44.63;101321.75;4945235;29;20982;-73
2023/09/25 09:48:33;;;;;;;5.18;1.92;;;;;;;20.80;44.58;101308.09;4943987;29;20219;-70
2023/09/25 09:51:03;;;;;;;5.07;2.13;;;;;;;20.54;45.60;101311.41;4945913;29;20213;-72
2023/09/25 09:53:38;;;;;;;7.85;1.63;;;;;;;20.30;45.89;101311.75;4945811;28;20286;-74
2023/09/25 09:56:06;;;;;;;7.38;2.05;;;;;;;20.18;46.83;101310.56;4943145;28;20206;-73
2023/09/25 09:58:36;;;;;;;4.53;2.30;;;;;;;20.12;46.63;101308.66;4944072;29;20219;-70
2023/09/25 10:01:05;;;;;;;6.57;2.30;;;;;;;20.09;46.41;101307.16;4943852;29;20323;-72
2023/09/25 10:03:33;;;;;;;3.83;1.90;;;;;;;19.90;47.09;101305.91;4945967;29;20234;-70
2023/09/25 10:06:01;;;;;;;5.13;2.30;;;;;;;19.83;48.10;101298.78;4946410;29;20414;-69
2023/09/25 10:08:30;;;;;;;5.73;1.97;;;;;;;19.81;48.46;101307.03;4945445;28;20503;-71
2023/09/25 10:11:16;;;;;;;5.40;2.60;;;;;;;19.89;46.66;101303.38;4942564;28;20215;-70
2023/09/25 10:13:44;;;;;;;6.27;2.27;;;;;;;19.84;47.15;101306.66;4940845;29;20686;-71
2023/09/25 10:16:12;;;;;;;5.63;2.13;;;;;;;20.04;46.57;101298.00;4945212;29;20290;-71
2023/09/25 10:18:43;;;;;;;5.07;2.30;;;;;;;20.02;47.45;101297.34;4946616;29;20211;-71
2023/09/25 10:21:14;;;;;;;5.30;2.70;;;;;;;20.08;46.08;101300.09;4945117;29;20210;-72
2023/09/25 10:23:46;;;;;;;4.93;2.60;;;;;;;20.01;46.73;101291.13;4950178;29;20235;-71
2023/09/25 10:26:21;;;;;;;4.43;2.33;;;;;;;20.04;46.68;101292.59;4947840;29;20215;-72
2023/09/25 10:28:58;;;;;;;7.67;2.60;;;;;;;20.12;47.58;101279.03;4944316;28;20204;-72
2023/09/25 10:31:29;;;;;;;7.03;2.47;;;;;;;20.27;46.67;101277.09;4946115;29;20211;-71
2023/09/25 10:33:59;;;;;;;9.57;3.20;;;;;;;20.48;45.76;101281.69;4945963;29;20219;-69
2023/09/25 10:36:38;;;;;;;7.87;2.50;;;;;;;20.52;45.42;101283.78;4946625;29;20669;-67
2023/09/25 10:39:08;;;;;;;4.00;2.13;;;;;;;20.28;45.71;101276.09;4943091;29;20207;-70
2023/09/25 10:41:37;;;;;;;7.07;2.53;;;;;;;20.39;45.72;101278.31;4942292;29;20227;-68
2023/09/25 10:44:06;;;;;;;4.33;2.50;;;;;;;21.79;43.64;101279.06;4942301;29;20223;-68
2023/09/25 10:46:35;;;;;;;6.50;2.67;;;;;;;23.02;40.96;101267.84;4941484;29;20290;-69
2023/09/25 10:49:03;;;;;;;5.43;2.30;;;;;;;23.23;40.65;101275.69;4942371;29;20207;-69
2023/09/25 10:51:31;;;;;;;7.33;2.80;;;;;;;23.25;40.33;101278.19;4942772;29;20210;-67
2023/09/25 10:53:58;;;;;;;5.00;2.00;;;;;;;22.82;40.53;101270.56;4945011;29;20265;-73
2023/09/25 10:56:26;;;;;;;9.40;2.30;;;;;;;22.41;40.87;101269.91;4944407;29;20211;-72
2023/09/25 10:58:56;;;;;;;6.63;2.00;;;;;;;22.08;41.88;101265.25;4942884;28;20207;-69
2023/09/25 11:01:25;;;;;;;5.90;2.38;;;;;;;22.18;41.88;101264.03;4944199;28;20222;-71
2023/09/25 11:03:55;;;;;;;7.03;2.20;;;;;;;22.60;41.23;101260.97;4944970;29;20579;-71
2023/09/25 11:06:23;;;;;;;4.95;2.25;;;;;;;22.88;41.04;101264.28;4944878;28;20527;-71
2023/09/25 11:08:58;;;;;;;4.90;2.88;;;;;;;23.00;40.18;101266.38;4941799;29;20589;-72
2023/09/25 11:11:28;;;;;;;3.97;2.25;;;;;;;22.95;39.69;101264.31;4942149;29;20214;-68
2023/09/25 11:13:59;;;;;;;6.00;2.22;;;;;;;22.83;39.88;101261.41;4942773;29;20948;-70
2023/09/25 11:16:27;;;;;;;4.15;1.90;;;;;;;22.86;39.59;101252.88;4944704;29;20291;-72
2023/09/25 11:19:10;;;;;;;8.75;2.50;;;;;;;23.12;39.71;101256.59;4946170;28;20291;-73
2023/09/25 11:21:39;;;;;;;4.53;2.17;;;;;;;23.37;39.20;101252.13;4948242;29;20561;-72
2023/09/25 11:24:09;;;;;;;5.30;2.15;;;;;;;24.34;37.23;101241.06;4948775;28;20227;-72
2023/09/25 11:26:37;;;;;;;6.03;2.28;;;;;;;25.16;35.94;101243.66;4946780;29;20203;-71
2023/09/25 11:29:10;;;;;;;5.60;2.25;;;;;;;25.23;36.01;101244.44;4944978;29;20215;-72
2023/09/25 11:31:39;;;;;;;5.47;2.42;;;;;;;25.73;34.28;101251.38;4945842;29;20691;-71
2023/09/25 11:34:10;;;;;;;5.65;2.33;;;;;;;26.40;33.58;101246.63;4949132;29;20315;-72
2023/09/25 11:36:44;;;;;;;6.65;2.80;;;;;;;26.29;33.11;101242.03;4943187;28;20208;-71
2023/09/25 11:39:14;;;;;;;5.28;2.40;;;;;;;25.73;33.70;101253.25;4946183;29;20195;-75
2023/09/25 11:41:42;;;;;;;7.07;2.30;;;;;;;24.88;34.18;101257.72;4948497;28;20854;-71
2023/09/25 11:44:11;;;;;;;5.68;2.05;;;;;;;24.19;35.92;101248.63;4942406;28;20234;-72
2023/09/25 11:46:38;;;;;;;4.40;2.20;;;;;;;23.71;37.08;101242.03;4940007;28;20218;-70
2023/09/25 11:49:06;;;;;;;4.78;2.72;;;;;;;23.41;37.20;101244.41;4946742;28;20294;-71
2023/09/25 11:51:34;;;;;;;5.80;2.47;;;;;;;23.49;37.63;101238.78;4945624;29;20212;-70
2023/09/25 11:54:02;;;;;;;8.88;2.00;;;;;;;23.39;38.24;101246.53;4944367;29;20211;-71
2023/09/25 11:56:32;;;;;;;8.55;2.63;;;;;;;23.20;37.84;101237.41;4945217;29;20862;-70
2023/09/25 11:59:00;;;;;;;4.88;2.30;;;;;;;22.93;38.30;101246.63;4942024;29;20219;-72
2023/09/25 12:01:29;;;;;;;6.07;2.30;;;;;;;22.70;38.31;101230.78;4943961;29;20651;-72
2023/09/25 12:03:58;;;;;;;7.97;2.33;;;;;;;22.52;39.12;101228.72;4944781;29;20632;-69
2023/09/25 12:06:26;;;;;;;6.40;2.42;;;;;;;22.32;39.52;101225.19;4944117;29;20593;-69
2023/09/25 12:08:55;;;;;;;3.80;1.95;;;;;;;22.19;39.32;101219.75;4943898;29;20227;-72
2023/09/25 12:11:22;;;;;;;5.05;2.17;;;;;;;22.29;39.61;101212.94;4944405;29;20323;-71
2023/09/25 12:13:50;;;;;;;3.90;2.00;;;;;;;22.71;39.04;101208.97;4945407;29;20212;-73
2023/09/25 12:16:18;;;;;;;3.88;2.00;;;;;;;22.65;39.25;101215.22;4942917;29;20384;-68
2023/09/25 12:18:48;;;;;;;7.85;2.35;;;;;;;22.59;38.65;101207.94;4943618;29;20218;-70
2023/09/25 12:21:19;;;;;;;7.03;2.40;;;;;;;22.31;39.75;101210.03;4942619;28;20224;-71
2023/09/25 12:23:47;;;;;;;4.72;2.45;;;;;;;22.60;39.23;101198.81;4944375;29;20225;-71
2023/09/25 12:26:16;;;;;;;8.43;2.38;;;;;;;22.71;38.94;101190.03;4944079;29;20654;-71
2023/09/25 12:28:43;;;;;;;5.10;2.53;;;;;;;22.58;39.03;101194.63;4944558;29;20286;-67
2023/09/25 12:31:11;;;;;;;4.10;2.08;;;;;;;22.29;39.54;101193.19;4943968;28;20297;-72
2023/09/25 12:33:39;;;;;;;5.10;1.95;;;;;;;22.11;40.09;101189.22;4944363;29;20238;-73
2023/09/25 12:36:08;;;;;;;6.35;1.83;;;;;;;21.95;41.02;101184.19;4943764;29;20203;-71
2023/09/25 12:38:36;;;;;;;6.35;2.15;;;;;;;21.93;41.15;101180.84;4942260;29;20264;-70
2023/09/25 12:41:04;;;;;;;4.85;1.80;;;;;;;21.96;41.04;101191.25;4944909;29;20278;-70
2023/09/25 12:43:32;;;;;;;8.60;2.40;;;;;;;22.12;39.55;101185.47;4943633;29;20342;-72
2023/09/25 12:46:00;;;;;;;6.10;2.45;;;;;;;22.23;38.68;101188.63;4943933;29;20289;-72
2023/09/25 12:48:28;;;;;;;5.20;2.15;;;;;;;22.07;38.91;101193.38;4942832;28;20595;-72
2023/09/25 12:50:56;;;;;;;5.30;2.08;;;;;;;22.00;39.29;101187.13;4943564;28;20208;-69
2023/09/25 12:53:26;;;;;;;5.78;1.73;;;;;;;21.90;40.10;101192.06;4943862;28;20211;-71
2023/09/25 12:55:54;;;;;;;4.80;1.80;;;;;;;21.88;40.38;101177.94;4941631;29;20207;-71
2023/09/25 12:58:22;;;;;;;5.38;1.85;;;;;;;21.93;40.46;101175.44;4945303;29;20207;-70
2023/09/25 13:00:50;;;;;;;5.30;2.20;;;;;;;21.99;39.60;101184.63;4943341;29;20218;-70
2023/09/25 13:03:18;;;;;;;3.50;1.83;;;;;;;21.88;40.27;101177.94;4942524;29;20232;-71
2023/09/25 13:05:45;;;;;;;5.20;2.03;;;;;;;21.84;40.43;101167.75;4948058;29;20270;-67
2023/09/25 13:08:14;;;;;;;4.45;2.13;;;;;;;21.81;39.99;101174.41;4945077;29;20258;-70
2023/09/25 13:10:43;;;;;;;6.60;2.13;;;;;;;21.89;39.67;101174.22;4942130;29;20266;-71
2023/09/25 13:13:12;;;;;;;5.90;1.97;;;;;;;21.83;39.68;101171.47;4941794;29;20270;-70
2023/09/25 13:15:39;;;;;;;6.28;2.20;;;;;;;21.84;39.96;101181.25;4944365;29;20222;-71
2023/09/25 13:18:07;;;;;;;4.57;2.00;;;;;;;21.77;39.29;101187.47;4944869;29;20223;-70
2023/09/25 13:20:35;;;;;;;4.33;1.97;;;;;;;21.76;39.48;101182.28;4946454;29;20298;-69
2023/09/25 13:23:03;;;;;;;5.00;1.90;;;;;;;21.86;39.23;101189.97;4947021;29;20960;-70
2023/09/25 13:25:31;;;;;;;4.93;1.70;;;;;;;22.01;38.18;101188.78;4947104;29;20223;-69
2023/09/25 13:28:00;;;;;;;3.10;1.73;;;;;;;22.00;38.66;101179.03;4946206;29;20316;-71
2023/09/25 13:30:27;;;;;;;5.70;2.03;;;;;;;22.02;38.37;101185.06;4945981;29;21347;-70
2023/09/25 13:32:55;;;;;;;13.30;2.63;;;;;;;22.02;38.05;101187.75;4947146;29;20684;-71
2023/09/25 13:35:23;;;;;;;5.82;2.05;;;;;;;22.14;37.59;101175.31;4942744;28;20218;-68
2023/09/25 13:37:51;;;;;;;5.53;1.90;;;;;;;22.09;38.12;101180.47;4942725;28;20258;-69
2023/09/25 13:40:20;;;;;;;4.68;1.80;;;;;;;22.06;38.78;101175.53;4943103;28;20239;-70
2023/09/25 13:42:48;;;;;;;3.57;1.63;;;;;;;22.08;38.59;101180.69;4943571;28;20223;-69
2023/09/25 13:45:19;;;;;;;3.92;1.77;;;;;;;22.12;38.78;101177.38;4944240;28;20239;-69
2023/09/25 13:47:47;;;;;;;6.55;1.73;;;;;;;22.20;38.51;101176.34;4944433;29;20217;-69
2023/09/25 13:50:15;;;;;;;3.03;1.70;;;;;;;22.27;38.25;101170.94;4943300;29;20319;-69
2023/09/25 13:52:43;;;;;;;3.42;1.85;;;;;;;22.43;37.85;101173.22;4943904;29;20293;-71
2023/09/25 13:55:13;;;;;;;4.47;1.88;;;;;;;22.47;37.52;101172.59;4944672;29;20306;-70
2023/09/25 13:57:41;;;;;;;3.30;1.55;;;;;;;22.43;37.63;101181.31;4943998;29;20662;-69
2023/09/25 14:00:11;;;;;;;3.90;1.52;;;;;;;22.44;38.03;101167.59;4943848;29;20246;-70
2023/09/25 14:02:47;;;;;;;3.35;1.80;;;;;;;22.32;38.45;101174.69;4945183;29;20203;-69
2023/09/25 14:05:18;;;;;;;4.65;1.90;;;;;;;22.36;38.03;101175.09;4943237;29;20222;-69
2023/09/25 14:07:46;;;;;;;5.80;1.67;;;;;;;22.27;38.39;101169.06;4945087;29;20297;-70
2023/09/25 14:10:14;;;;;;;5.53;1.95;;;;;;;22.32;38.13;101172.00;4944230;29;20207;-70
2023/09/25 14:12:44;;;;;;;3.50;1.70;;;;;;;22.29;38.35;101168.88;4943414;29;20661;-69
2023/09/25 14:15:12;;;;;;;4.85;2.03;;;;;;;22.31;38.33;101174.91;4944656;28;20223;-70
2023/09/25 14:17:40;;;;;;;4.47;1.55;;;;;;;22.30;37.89;101170.53;4944118;29;20223;-70
2023/09/25 14:20:10;;;;;;;7.10;2.03;;;;;;;22.13;38.76;101162.84;4944750;29;20211;-70
2023/09/25 14:22:38;;;;;;;4.53;1.70;;;;;;;22.03;39.32;101165.13;4942021;29;20220;-70
2023/09/25 14:25:07;;;;;;;2.95;1.38;;;;;;;21.96;39.27;101171.53;4944689;29;20238;-67
2023/09/25 14:27:35;;;;;;;5.32;1.55;;;;;;;21.97;39.26;101168.66;4945461;29;20377;-70
2023/09/25 14:30:03;;;;;;;4.22;1.83;;;;;;;22.21;38.46;101171.78;4942752;29;20310;-70
2023/09/25 14:32:31;;;;;;;4.07;1.95;;;;;;;22.09;38.74;101172.38;4943319;29;20579;-71
2023/09/25 14:34:59;;;;;;;3.70;2.00;;;;;;;21.96;39.76;101172.34;4943363;29;20625;-70
2023/09/25 14:37:28;;;;;;;4.05;2.20;;;;;;;21.89;39.94;101176.91;4942613;29;20217;-69
2023/09/25 14:39:57;;;;;;;6.10;1.80;;;;;;;22.00;39.24;101176.31;4944594;28;20696;-69
2023/09/25 14:42:28;;;;;;;3.17;1.73;;;;;;;21.95;39.91;101176.09;4943260;28;20231;-70
2023/09/25 14:44:58;;;;;;;4.65;1.65;;;;;;;21.98;39.45;101167.63;4943468;29;20230;-66
2023/09/25 14:47:25;;;;;;;6.32;1.70;;;;;;;21.91;39.00;101169.41;4942359;29;20572;-70
2023/09/25 14:49:53;;;;;;;3.55;1.70;;;;;;;21.89;39.04;101167.97;4945360;29;20203;-69
2023/09/25 14:52:21;;;;;;;3.92;1.85;;;;;;;21.88;39.15;101167.16;4944463;29;20337;-68
2023/09/25 14:54:51;;;;;;;4.75;1.80;;;;;;;21.87;38.97;101165.47;4944426;28;20239;-70
2023/09/25 14:57:19;;;;;;;3.22;1.70;;;;;;;21.89;39.11;101163.41;4943345;29;20203;-70
2023/09/25 14:59:46;;;;;;;5.00;1.70;;;;;;;21.95;39.26;101162.59;4942824;29;20902;-71
2023/09/25 15:02:14;;;;;;;7.00;2.03;;;;;;;21.98;39.58;101159.50;4942081;29;20294;-68
2023/09/25 15:04:42;;;;;;;4.40;1.88;;;;;;;21.91;39.90;101166.72;4943703;29;20245;-70
2023/09/25 15:07:10;;;;;;;4.05;1.88;;;;;;;21.90;40.03;101159.66;4943638;28;20227;-70
2023/09/25 15:09:38;;;;;;;8.32;1.55;;;;;;;21.87;39.74;101164.66;4943156;28;20219;-70
2023/09/25 15:12:08;;;;;;;3.47;1.58;;;;;;;21.78;39.95;101164.00;4941344;28;20306;-70
2023/09/25 15:14:36;;;;;;;3.72;1.60;;;;;;;21.78;40.26;101153.22;4942896;29;20294;-68
2023/09/25 15:17:03;;;;;;;5.45;1.80;;;;;;;21.80;40.22;101153.00;4943251;28;20298;-70
2023/09/25 15:19:31;;;;;;;3.92;2.08;;;;;;;21.82;40.32;101156.31;4941690;29;20214;-74
2023/09/25 15:21:59;;;;;;;4.53;2.00;;;;;;;21.83;40.40;101156.13;4943343;28;20227;-71
2023/09/25 15:24:27;;;;;;;4.85;2.10;;;;;;;21.74;40.83;101155.47;4945234;29;20200;-73
2023/09/25 15:26:55;;;;;;;3.43;1.57;;;;;;;21.81;40.83;101151.97;4944564;28;20203;-73
2023/09/25 15:29:25;;;;;;;3.13;1.60;;;;;;;21.78;40.59;101151.34;4942239;29;20655;-72
2023/09/25 15:32:02;;;;;;;4.82;1.73;;;;;;;21.86;40.31;101153.00;4944320;29;20215;-71
2023/09/25 15:34:29;;;;;;;6.87;1.97;;;;;;;21.75;40.91;101156.31;4943184;28;20195;-67
2023/09/25 15:36:58;;;;;;;3.22;1.90;;;;;;;21.71;41.00;101157.78;4942791;28;20208;-72
2023/09/25 15:39:26;;;;;;;4.10;1.85;;;;;;;21.65;41.38;101147.78;4955003;29;20235;-72
2023/09/25 15:41:54;;;;;;;3.20;1.73;;;;;;;21.58;41.44;101144.22;4941419;29;20228;-72
2023/09/25 15:44:29;;;;;;;4.25;1.70;;;;;;;21.61;41.21;101143.84;4944079;28;23369;-69
2023/09/25 15:46:57;;;;;;;4.37;2.10;;;;;;;21.54;41.45;101143.81;4943194;28;20227;-71
2023/09/25 15:49:25;;;;;;;5.10;1.90;;;;;;;21.54;41.49;101141.13;4943059;28;20240;-73
2023/09/25 15:51:52;;;;;;;4.83;2.20;;;;;;;21.48;41.90;101149.19;4943675;28;20262;-72
2023/09/25 15:54:20;;;;;;;5.00;1.77;;;;;;;21.49;41.55;101145.44;4945828;29;20207;-72
2023/09/25 15:56:48;;;;;;;2.87;1.53;;;;;;;21.50;41.83;101144.41;4943085;29;20303;-70
2023/09/25 15:59:16;;;;;;;3.50;1.87;;;;;;;21.39;42.21;101143.97;4942775;29;20475;-72
2023/09/25 16:01:45;;;;;;;7.57;1.77;;;;;;;21.37;42.03;101148.72;4936270;29;20222;-71
2023/09/25 16:04:13;;;;;;;4.27;1.90;;;;;;;21.28;42.42;101144.56;4942919;29;20214;-75
2023/09/25 16:06:41;;;;;;;5.10;2.03;;;;;;;21.23;42.70;101136.25;4939609;28;20235;-70
2023/09/25 16:09:10;;;;;;;5.17;2.00;;;;;;;21.18;42.52;101138.72;4942569;29;20926;-68
2023/09/25 16:11:38;;;;;;;5.00;1.70;;;;;;;21.17;42.30;101138.88;4941247;29;20208;-71
2023/09/25 16:14:05;;;;;;;5.00;1.90;;;;;;;21.14;42.75;101142.81;4943833;29;20227;-72
2023/09/25 16:16:33;;;;;;;7.77;1.73;;;;;;;21.10;42.63;101146.13;4946705;29;20495;-71
2023/09/25 16:19:04;;;;;;;5.57;2.10;;;;;;;21.06;43.17;101153.75;4944705;29;20216;-72
2023/09/25 16:21:32;;;;;;;7.03;2.47;;;;;;;21.01;43.53;101153.53;4946877;29;20278;-72
2023/09/25 16:23:59;;;;;;;5.87;2.50;;;;;;;20.96;43.63;101156.00;4945261;29;20704;-72